createdAt,value
2022-09-10T00:01:06.768Z,7.07
2022-09-10T00:03:33.463Z,5.93
2022-09-10T00:06:04.198Z,7.97
2022-09-10T00:08:31.291Z,8.90
2022-09-10T00:10:58.209Z,8.30
2022-09-10T00:13:24.938Z,6.80
2022-09-10T00:15:55.725Z,8.70
2022-09-10T00:18:24.038Z,7.80
2022-09-10T00:20:53.775Z,8.63
2022-09-10T00:23:26.632Z,9.93
2022-09-10T00:25:55.030Z,8.20
2022-09-10T00:28:24.446Z,6.43
2022-09-10T00:30:54.518Z,8.07
2022-09-10T00:33:23.934Z,6.43
2022-09-10T00:35:50.690Z,8.73
2022-09-10T00:38:18.578Z,10.33
2022-09-10T00:40:46.481Z,9.80
2022-09-10T00:43:22.384Z,9.93
2022-09-10T00:45:55.535Z,9.67
2022-09-10T00:48:29.533Z,8.43
2022-09-10T00:50:58.287Z,6.97
2022-09-10T00:53:28.141Z,10.50
2022-09-10T00:56:00.878Z,10.50
2022-09-10T00:58:28.713Z,9.50
2022-09-10T01:01:04.463Z,6.73
2022-09-10T01:03:32.519Z,7.53
2022-09-10T01:05:59.648Z,6.20
2022-09-10T01:08:27.498Z,6.67
2022-09-10T01:11:34.585Z,6.17
2022-09-10T01:14:05.525Z,6.73
2022-09-10T01:16:55.192Z,10.60
2022-09-10T01:19:54.921Z,12.10
2022-09-10T01:23:00.201Z,8.10
2022-09-10T01:26:18.434Z,8.43
2022-09-10T01:29:03.034Z,8.30
2022-09-10T01:31:40.068Z,11.00
2022-09-10T01:34:16.822Z,9.13
2022-09-10T01:36:50.415Z,9.70
2022-09-10T01:39:19.550Z,5.83
2022-09-10T01:41:46.507Z,8.80
2022-09-10T01:44:44.879Z,9.50
2022-09-10T01:47:53.223Z,8.97
2022-09-10T01:50:41.954Z,9.23
2022-09-10T01:53:38.742Z,7.30
2022-09-10T01:56:17.248Z,8.60
2022-09-10T01:58:48.011Z,6.37
2022-09-10T02:01:40.750Z,9.00
2022-09-10T02:04:10.585Z,6.30
2022-09-10T02:06:39.980Z,9.23
2022-09-10T02:09:09.786Z,10.63
2022-09-10T02:11:52.364Z,8.73
2022-09-10T02:14:21.675Z,8.70
2022-09-10T02:16:59.962Z,8.47
2022-09-10T02:19:27.468Z,11.83
2022-09-10T02:21:59.365Z,12.97
2022-09-10T02:24:28.449Z,6.43
2022-09-10T02:26:55.571Z,11.43
2022-09-10T02:29:22.409Z,10.63
2022-09-10T02:31:50.499Z,6.67
2022-09-10T02:34:17.352Z,6.93
2022-09-10T02:36:44.096Z,7.07
2022-09-10T02:39:11.065Z,9.67
2022-09-10T02:41:40.982Z,9.33
2022-09-10T02:44:09.916Z,9.20
2022-09-10T02:46:36.672Z,7.83
2022-09-10T02:49:03.538Z,9.63
2022-09-10T02:51:30.384Z,8.73
2022-09-10T02:53:57.234Z,8.33
2022-09-10T02:56:24.170Z,7.63
2022-09-10T02:58:51.693Z,10.17
2022-09-10T03:01:22.127Z,10.20
2022-09-10T03:03:50.893Z,6.83
2022-09-10T03:06:18.133Z,6.77
2022-09-10T03:08:44.926Z,7.30
2022-09-10T03:11:13.008Z,11.47
2022-09-10T03:13:42.601Z,12.27
2022-09-10T03:16:15.702Z,11.17
2022-09-10T03:18:43.212Z,8.87
2022-09-10T03:21:12.371Z,9.37
2022-09-10T03:23:40.418Z,10.33
2022-09-10T03:26:11.163Z,9.63
2022-09-10T03:28:38.607Z,12.23
2022-09-10T03:31:05.766Z,10.83
2022-09-10T03:33:33.288Z,13.53
2022-09-10T03:36:00.533Z,10.17
2022-09-10T03:38:28.329Z,9.23
2022-09-10T03:40:58.204Z,10.40
2022-09-10T03:43:25.036Z,12.73
2022-09-10T03:45:52.508Z,11.50
2022-09-10T03:48:21.465Z,9.67
2022-09-10T03:50:51.512Z,9.77
2022-09-10T03:53:19.975Z,11.67
2022-09-10T03:55:50.837Z,8.97
2022-09-10T03:58:18.733Z,12.40
2022-09-10T04:00:46.566Z,9.30
2022-09-10T04:03:17.114Z,11.07
2022-09-10T04:05:45.000Z,9.10
2022-09-10T04:08:13.967Z,9.47
2022-09-10T04:10:42.143Z,7.97
2022-09-10T04:13:09.387Z,10.87
2022-09-10T04:15:38.133Z,11.27
2022-09-10T04:18:06.478Z,9.07
2022-09-10T04:20:33.639Z,8.77
2022-09-10T04:23:00.720Z,8.70
2022-09-10T04:25:30.726Z,7.07
2022-09-10T04:27:58.606Z,7.10
2022-09-10T04:30:26.207Z,11.07
2022-09-10T04:32:52.978Z,12.23
2022-09-10T04:35:20.361Z,6.87
2022-09-10T04:37:47.113Z,10.00
2022-09-10T04:40:13.931Z,7.00
2022-09-10T04:42:40.705Z,7.27
2022-09-10T04:45:08.181Z,7.13
2022-09-10T04:47:35.012Z,7.03
2022-09-10T04:50:02.670Z,10.13
2022-09-10T04:52:29.618Z,9.57
2022-09-10T04:54:59.779Z,6.70
2022-09-10T04:57:26.712Z,10.47
2022-09-10T04:59:54.018Z,11.90
2022-09-10T05:02:21.291Z,6.17
2022-09-10T05:04:48.068Z,7.97
2022-09-10T05:07:14.829Z,6.53
2022-09-10T05:09:41.710Z,8.67
2022-09-10T05:12:08.540Z,9.57
2022-09-10T05:14:35.416Z,8.60
2022-09-10T05:17:02.307Z,7.37
2022-09-10T05:19:31.604Z,10.00
2022-09-10T05:22:01.092Z,8.27
2022-09-10T05:24:27.902Z,9.97
2022-09-10T05:26:56.924Z,10.07
2022-09-10T05:29:25.035Z,8.90
2022-09-10T05:31:51.935Z,12.33
2022-09-10T05:34:18.828Z,7.93
2022-09-10T05:36:45.588Z,12.90
2022-09-10T05:39:12.424Z,10.03
2022-09-10T05:41:39.563Z,11.23
2022-09-10T05:44:06.601Z,10.37
2022-09-10T05:46:33.404Z,10.73
2022-09-10T05:49:00.200Z,11.63
2022-09-10T05:51:30.224Z,11.57
2022-09-10T05:53:57.892Z,10.43
2022-09-10T05:56:28.183Z,9.33
2022-09-10T05:58:54.995Z,11.37
2022-09-10T06:01:21.776Z,8.97
2022-09-10T06:03:48.687Z,8.80
2022-09-10T06:06:15.501Z,8.07
2022-09-10T06:08:42.627Z,9.40
2022-09-10T06:11:10.824Z,10.17
2022-09-10T06:13:40.440Z,9.60
2022-09-10T06:16:07.835Z,11.70
2022-09-10T06:18:34.705Z,11.07
2022-09-10T06:21:26.186Z,9.73
2022-09-10T06:23:58.006Z,8.07
2022-09-10T06:26:31.475Z,9.17
2022-09-10T06:28:58.375Z,8.47
2022-09-10T06:31:25.233Z,8.03
2022-09-10T06:33:52.208Z,8.30
2022-09-10T06:36:19.000Z,11.23
2022-09-10T06:38:46.167Z,9.97
2022-09-10T06:41:14.284Z,8.13
2022-09-10T06:43:43.678Z,10.70
2022-09-10T06:46:50.696Z,12.97
2022-09-10T06:49:05.871Z,8.80
2022-09-10T06:51:34.091Z,8.67
2022-09-10T06:54:01.672Z,9.57
2022-09-10T06:56:29.613Z,10.20
2022-09-10T06:59:01.621Z,9.80
2022-09-10T07:01:29.387Z,9.20
2022-09-10T07:03:58.020Z,11.07
2022-09-10T07:06:26.275Z,12.23
2022-09-10T07:08:57.810Z,10.47
2022-09-10T07:11:26.168Z,9.37
2022-09-10T07:13:54.090Z,9.13
2022-09-10T07:16:22.526Z,11.10
2022-09-10T07:18:51.174Z,11.40
2022-09-10T07:21:19.420Z,11.40
2022-09-10T07:23:51.807Z,9.63
2022-09-10T07:26:22.669Z,9.53
2022-09-10T07:28:49.652Z,10.57
2022-09-10T07:31:19.343Z,9.47
2022-09-10T07:33:47.314Z,10.03
2022-09-10T07:36:14.984Z,11.03
2022-09-10T07:38:42.520Z,9.43
2022-09-10T07:41:11.342Z,9.10
2022-09-10T07:43:43.817Z,8.97
2022-09-10T07:46:21.644Z,9.23
2022-09-10T07:48:52.693Z,9.57
2022-09-10T07:51:21.618Z,11.57
2022-09-10T07:53:55.268Z,9.60
2022-09-10T07:56:23.522Z,9.30
2022-09-10T07:58:51.543Z,9.20
2022-09-10T08:01:39.336Z,7.67
2022-09-10T08:04:07.392Z,7.73
2022-09-10T08:06:40.340Z,11.50
2022-09-10T08:09:07.453Z,8.73
2022-09-10T08:11:34.658Z,8.07
2022-09-10T08:14:01.637Z,8.97
2022-09-10T08:16:28.997Z,8.53
2022-09-10T08:19:01.438Z,7.47
2022-09-10T08:21:30.419Z,7.03
2022-09-10T08:23:58.382Z,8.30
2022-09-10T08:26:26.575Z,8.53
2022-09-10T08:28:56.080Z,9.30
2022-09-10T08:31:24.945Z,12.47
2022-09-10T08:33:55.210Z,9.97
2022-09-10T08:36:23.753Z,9.20
2022-09-10T08:38:53.738Z,9.23
2022-09-10T08:41:45.369Z,8.87
2022-09-10T08:44:26.852Z,7.87
2022-09-10T08:47:33.360Z,10.13
2022-09-10T08:50:18.682Z,8.73
2022-09-10T08:52:58.273Z,9.10
2022-09-10T08:55:34.112Z,8.83
2022-09-10T08:58:11.973Z,10.20
2022-09-10T09:00:41.620Z,9.50
2022-09-10T09:03:17.231Z,10.03
2022-09-10T09:05:49.727Z,9.27
2022-09-10T09:08:20.148Z,9.60
2022-09-10T09:10:51.093Z,9.40
2022-09-10T09:13:20.967Z,9.00
2022-09-10T09:15:51.718Z,11.13
2022-09-10T09:18:28.560Z,14.57
2022-09-10T09:21:04.191Z,9.97
2022-09-10T09:24:03.039Z,12.77
2022-09-10T09:26:36.281Z,10.73
2022-09-10T09:29:28.356Z,10.33
2022-09-10T09:31:59.673Z,10.53
2022-09-10T09:34:29.123Z,10.50
2022-09-10T09:36:59.443Z,11.00
2022-09-10T09:39:52.976Z,9.80
2022-09-10T09:42:50.227Z,10.30
2022-09-10T09:45:35.400Z,13.40
2022-09-10T09:48:03.854Z,10.50
2022-09-10T09:50:33.558Z,10.03
2022-09-10T09:53:00.604Z,10.67
2022-09-10T09:55:40.242Z,10.00
2022-09-10T09:58:22.124Z,7.60
2022-09-10T10:01:13.210Z,7.70
2022-09-10T10:03:48.478Z,8.93
2022-09-10T10:06:16.473Z,7.07
2022-09-10T10:08:57.975Z,7.23
2022-09-10T10:11:47.194Z,6.97
2022-09-10T10:14:32.176Z,7.23
2022-09-10T10:17:01.031Z,8.63
2022-09-10T10:19:38.460Z,7.70
2022-09-10T10:22:14.174Z,6.17
2022-09-10T10:24:48.284Z,5.30
2022-09-10T10:27:32.989Z,5.13
2022-09-10T10:30:23.564Z,5.88
2022-09-10T10:32:56.141Z,6.67
2022-09-10T10:35:26.272Z,5.90
2022-09-10T10:38:31.601Z,5.30
2022-09-10T10:41:31.869Z,5.17
2022-09-10T10:44:18.917Z,5.07
2022-09-10T10:47:19.537Z,5.50
2022-09-10T10:50:25.453Z,5.10
2022-09-10T10:53:11.767Z,4.03
2022-09-10T10:56:14.888Z,3.95
2022-09-10T10:58:53.519Z,4.90
2022-09-10T11:01:30.264Z,3.43
2022-09-10T11:04:19.333Z,4.20
2022-09-10T11:06:49.835Z,4.50
2022-09-10T11:10:03.914Z,6.97
2022-09-10T11:12:55.415Z,4.50
2022-09-10T11:15:35.131Z,4.10
2022-09-10T11:18:13.023Z,8.20
2022-09-10T11:20:48.420Z,3.57
2022-09-10T11:23:27.878Z,3.03
2022-09-10T11:26:02.566Z,3.22
2022-09-10T11:28:55.193Z,4.10
2022-09-10T11:31:40.649Z,4.00
2022-09-10T11:34:17.223Z,3.87
2022-09-10T11:37:14.082Z,6.87
2022-09-10T11:39:50.151Z,5.67
2022-09-10T11:42:23.647Z,6.63
2022-09-10T11:45:01.031Z,4.03
2022-09-10T11:47:41.154Z,5.13
2022-09-10T11:50:13.646Z,5.43
2022-09-10T11:52:42.206Z,6.37
2022-09-10T11:55:16.190Z,6.37
2022-09-10T11:58:07.148Z,6.13
2022-09-10T12:00:47.476Z,5.27
2022-09-10T12:03:48.801Z,6.93
2022-09-10T12:06:26.480Z,6.87
2022-09-10T12:09:23.541Z,5.93
2022-09-10T12:12:14.727Z,5.67
2022-09-10T12:14:42.034Z,6.30
2022-09-10T12:17:35.193Z,5.87
2022-09-10T12:20:06.020Z,6.27
2022-09-10T12:22:40.296Z,6.17
2022-09-10T12:25:25.899Z,6.13
2022-09-10T12:27:59.919Z,5.20
2022-09-10T12:30:30.787Z,4.77
2022-09-10T12:33:00.677Z,3.63
2022-09-10T12:35:36.339Z,4.87
2022-09-10T12:38:42.987Z,4.80
2022-09-10T12:41:27.991Z,3.90
2022-09-10T12:43:59.530Z,5.30
2022-09-10T12:46:28.327Z,5.10
2022-09-10T12:48:58.225Z,6.20
2022-09-10T12:51:44.510Z,4.47
2022-09-10T12:54:46.821Z,5.90
2022-09-10T12:57:36.274Z,3.70
2022-09-10T13:00:22.456Z,3.47
2022-09-10T13:02:54.070Z,3.40
2022-09-10T13:05:33.180Z,3.87
2022-09-10T13:08:16.282Z,4.13
2022-09-10T13:10:51.123Z,4.93
2022-09-10T13:13:31.449Z,5.40
2022-09-10T13:15:59.044Z,5.20
2022-09-10T13:18:29.601Z,5.43
2022-09-10T13:20:57.120Z,4.40
2022-09-10T13:23:47.238Z,6.77
2022-09-10T13:26:40.301Z,7.17
2022-09-10T13:29:34.259Z,4.73
2022-09-10T13:32:11.200Z,9.47
2022-09-10T13:35:20.133Z,6.10
2022-09-10T13:38:02.057Z,7.33
2022-09-10T13:40:37.101Z,4.83
2022-09-10T13:43:41.748Z,5.60
2022-09-10T13:46:44.312Z,4.60
2022-09-10T13:49:37.794Z,5.30
2022-09-10T13:52:10.252Z,4.40
2022-09-10T13:54:46.207Z,5.60
2022-09-10T13:57:25.892Z,5.97
2022-09-10T14:00:00.693Z,5.57
2022-09-10T14:02:45.184Z,7.70
2022-09-10T14:05:42.816Z,6.30
2022-09-10T14:08:14.934Z,8.63
2022-09-10T14:10:55.898Z,7.83
2022-09-10T14:13:48.261Z,6.73
2022-09-10T14:16:26.208Z,7.77
2022-09-10T14:18:59.230Z,9.80
2022-09-10T14:21:29.484Z,7.43
2022-09-10T14:23:59.035Z,7.53
2022-09-10T14:26:29.063Z,7.60
2022-09-10T14:29:01.129Z,7.97
2022-09-10T14:31:34.821Z,7.90
2022-09-10T14:34:24.684Z,8.30
2022-09-10T14:36:51.512Z,8.53
2022-09-10T14:39:20.690Z,8.23
2022-09-10T14:41:48.446Z,8.93
2022-09-10T14:44:28.252Z,7.80
2022-09-10T14:47:14.855Z,8.10
2022-09-10T14:49:44.550Z,9.23
2022-09-10T14:52:11.749Z,8.20
2022-09-10T14:54:38.594Z,8.87
2022-09-10T14:57:15.868Z,9.07
2022-09-10T14:59:46.480Z,8.13
2022-09-10T15:02:22.827Z,8.97
2022-09-10T15:04:50.502Z,11.50
2022-09-10T15:07:17.344Z,8.40
2022-09-10T15:09:44.215Z,10.57
2022-09-10T15:12:30.779Z,10.00
2022-09-10T15:14:58.241Z,9.17
2022-09-10T15:17:25.498Z,9.03
2022-09-10T15:19:52.596Z,9.17
2022-09-10T15:22:27.960Z,8.70
2022-09-10T15:25:12.799Z,8.30
2022-09-10T15:27:39.727Z,8.57
2022-09-10T15:30:07.280Z,8.60
2022-09-10T15:32:34.163Z,8.97
2022-09-10T15:35:01.369Z,8.73
2022-09-10T15:37:28.169Z,9.53
2022-09-10T15:39:56.545Z,9.20
2022-09-10T15:42:23.417Z,8.10
2022-09-10T15:44:51.520Z,8.60
2022-09-10T15:47:18.344Z,9.23
2022-09-10T15:49:45.096Z,9.37
2022-09-10T15:52:11.815Z,9.33
2022-09-10T15:54:38.880Z,9.13
2022-09-10T15:57:06.798Z,9.60
2022-09-10T15:59:33.532Z,10.03
2022-09-10T16:02:00.353Z,10.00
2022-09-10T16:04:30.685Z,11.13
2022-09-10T16:07:00.595Z,10.87
2022-09-10T16:09:27.391Z,10.17
2022-09-10T16:11:54.172Z,12.13
2022-09-10T16:14:21.325Z,10.17
2022-09-10T16:16:48.866Z,10.53
2022-09-10T16:19:15.785Z,10.20
2022-09-10T16:21:43.438Z,9.40
2022-09-10T16:24:10.479Z,9.10
2022-09-10T16:26:40.259Z,8.90
2022-09-10T16:29:19.501Z,7.47
2022-09-10T16:31:46.560Z,8.53
2022-09-10T16:34:16.900Z,9.97
2022-09-10T16:36:44.427Z,8.70
2022-09-10T16:39:13.920Z,8.70
2022-09-10T16:41:45.530Z,9.07
2022-09-10T16:44:14.726Z,8.67
2022-09-10T16:46:42.348Z,9.03
2022-09-10T16:49:13.516Z,9.60
2022-09-10T16:51:42.390Z,9.30
2022-09-10T16:54:10.411Z,9.40
2022-09-10T16:56:43.331Z,11.33
2022-09-10T16:59:21.750Z,9.20
2022-09-10T17:01:49.820Z,10.23
2022-09-10T17:04:21.512Z,9.37
2022-09-10T17:06:51.164Z,8.53
2022-09-10T17:09:18.072Z,10.40
2022-09-10T17:11:44.986Z,9.03
2022-09-10T17:14:12.884Z,8.80
2022-09-10T17:16:42.018Z,9.00
2022-09-10T17:19:14.086Z,9.30
2022-09-10T17:21:45.342Z,13.47
2022-09-10T17:24:13.401Z,10.90
2022-09-10T17:26:41.399Z,10.77
2022-09-10T17:29:11.044Z,9.20
2022-09-10T17:31:37.862Z,8.70
2022-09-10T17:34:04.984Z,9.00
2022-09-10T17:36:32.860Z,8.53
2022-09-10T17:39:00.132Z,8.43
2022-09-10T17:41:28.785Z,8.30
2022-09-10T17:43:57.648Z,8.87
2022-09-10T17:46:24.484Z,9.70
2022-09-10T17:48:53.536Z,9.43
2022-09-10T17:51:24.991Z,9.30
2022-09-10T17:53:54.063Z,9.27
2022-09-10T17:56:22.288Z,9.80
2022-09-10T17:58:49.636Z,10.23
2022-09-10T18:01:25.459Z,9.63
2022-09-10T18:03:52.951Z,9.50
2022-09-10T18:06:21.573Z,9.37
2022-09-10T18:08:50.425Z,9.57
2022-09-10T18:11:27.135Z,10.10
2022-09-10T18:13:55.543Z,9.60
2022-09-10T18:16:26.688Z,10.40
2022-09-10T18:19:00.056Z,10.93
2022-09-10T18:21:28.323Z,11.00
2022-09-10T18:24:03.359Z,10.07
2022-09-10T18:26:33.064Z,10.43
2022-09-10T18:29:05.879Z,11.70
2022-09-10T18:31:35.522Z,14.50
2022-09-10T18:34:03.296Z,12.47
2022-09-10T18:36:31.860Z,11.33
2022-09-10T18:39:02.990Z,12.00
2022-09-10T18:41:32.274Z,11.57
2022-09-10T18:44:01.270Z,12.17
2022-09-10T18:46:30.878Z,12.83
2022-09-10T18:48:58.641Z,12.60
2022-09-10T18:51:28.034Z,11.73
2022-09-10T18:53:56.728Z,12.50
2022-09-10T18:56:25.699Z,12.80
2022-09-10T18:59:01.109Z,13.83
2022-09-10T19:01:29.678Z,11.47
2022-09-10T19:03:59.603Z,12.57
2022-09-10T19:06:30.375Z,12.30
2022-09-10T19:08:59.718Z,11.93
2022-09-10T19:11:32.601Z,11.00
2022-09-10T19:14:01.753Z,11.37
2022-09-10T19:16:35.234Z,10.87
2022-09-10T19:19:05.344Z,10.60
2022-09-10T19:21:35.401Z,11.30
2022-09-10T19:24:03.758Z,11.13
2022-09-10T19:26:34.939Z,11.03
2022-09-10T19:29:02.337Z,11.23
2022-09-10T19:31:33.573Z,11.77
2022-09-10T19:34:03.480Z,11.20
2022-09-10T19:36:33.619Z,11.47
2022-09-10T19:39:02.063Z,12.50
2022-09-10T19:41:29.065Z,14.67
2022-09-10T19:43:56.543Z,12.03
2022-09-10T19:46:28.309Z,14.50
2022-09-10T19:48:58.327Z,13.67
2022-09-10T19:51:27.188Z,14.60
2022-09-10T19:53:55.659Z,15.83
2022-09-10T19:56:25.733Z,15.57
2022-09-10T19:58:55.647Z,15.90
2022-09-10T20:01:31.145Z,15.50
2022-09-10T20:04:01.195Z,16.33
2022-09-10T20:06:29.844Z,17.80
2022-09-10T20:08:57.400Z,16.90
2022-09-10T20:11:27.649Z,16.73
2022-09-10T20:14:00.252Z,17.43
2022-09-10T20:16:27.708Z,17.13
2022-09-10T20:18:54.890Z,15.67
2022-09-10T20:21:24.737Z,18.60
2022-09-10T20:23:56.449Z,17.00
2022-09-10T20:26:34.068Z,17.13
2022-09-10T20:29:04.045Z,17.43
2022-09-10T20:31:33.899Z,16.70
2022-09-10T20:34:03.563Z,17.07
2022-09-10T20:36:31.493Z,17.10
2022-09-10T20:38:58.549Z,18.27
2022-09-10T20:41:30.100Z,17.50
2022-09-10T20:43:58.947Z,17.30
2022-09-10T20:46:27.337Z,17.37
2022-09-10T20:48:55.320Z,17.30
2022-09-10T20:51:22.292Z,18.30
2022-09-10T20:53:49.122Z,17.87
2022-09-10T20:56:18.954Z,17.20
2022-09-10T20:58:46.822Z,17.10
2022-09-10T21:01:14.922Z,17.70
2022-09-10T21:03:42.085Z,18.73
2022-09-10T21:06:10.780Z,17.23
2022-09-10T21:08:38.918Z,18.13
2022-09-10T21:11:08.349Z,17.63
2022-09-10T21:13:36.337Z,18.67
2022-09-10T21:16:14.506Z,18.27
2022-09-10T21:18:42.346Z,19.40
2022-09-10T21:21:14.163Z,19.27
2022-09-10T21:23:52.152Z,20.53
2022-09-10T21:26:20.890Z,18.03
2022-09-10T21:28:48.271Z,19.30
2022-09-10T21:31:15.148Z,20.17
2022-09-10T21:33:43.259Z,22.77
2022-09-10T21:36:18.543Z,19.13
2022-09-10T21:38:54.268Z,18.67
2022-09-10T21:41:32.913Z,17.53
2022-09-10T21:44:01.649Z,18.17
2022-09-10T21:46:29.469Z,18.87
2022-09-10T21:48:56.516Z,17.93
2022-09-10T21:51:24.001Z,19.07
2022-09-10T21:53:55.974Z,19.13
2022-09-10T21:56:24.912Z,18.90
2022-09-10T21:58:52.625Z,21.27
2022-09-10T22:01:24.356Z,23.90
2022-09-10T22:03:55.849Z,19.93
2022-09-10T22:06:24.738Z,22.90
2022-09-10T22:09:00.312Z,20.53
2022-09-10T22:11:51.917Z,19.60
2022-09-10T22:14:23.699Z,21.23
2022-09-10T22:16:51.437Z,19.83
2022-09-10T22:19:22.504Z,19.90
2022-09-10T22:21:50.156Z,24.77
2022-09-10T22:24:22.128Z,24.00
2022-09-10T22:26:49.162Z,21.20
2022-09-10T22:29:20.454Z,19.17
2022-09-10T22:31:47.937Z,23.07
2022-09-10T22:34:16.579Z,23.77
2022-09-10T22:36:45.140Z,22.20
2022-09-10T22:39:20.147Z,23.80
2022-09-10T22:41:49.366Z,23.07
2022-09-10T22:44:17.971Z,20.87
2022-09-10T22:46:44.841Z,22.50
2022-09-10T22:49:12.323Z,21.53
2022-09-10T22:51:44.026Z,25.43
2022-09-10T22:54:11.133Z,22.57
2022-09-10T22:56:38.273Z,22.97
2022-09-10T22:59:06.409Z,27.60
2022-09-10T23:01:37.859Z,22.90
2022-09-10T23:04:06.742Z,21.07
2022-09-10T23:06:37.279Z,25.37
2022-09-10T23:09:16.042Z,24.57
2022-09-10T23:11:44.440Z,25.93
2022-09-10T23:14:21.983Z,25.37
2022-09-10T23:16:50.826Z,22.40
2022-09-10T23:19:23.282Z,29.97
2022-09-10T23:21:53.858Z,25.33
2022-09-10T23:24:26.483Z,25.67
2022-09-10T23:26:54.058Z,24.97
2022-09-10T23:29:23.916Z,25.50
2022-09-10T23:31:53.396Z,28.77
2022-09-10T23:34:20.848Z,28.23
2022-09-10T23:36:48.954Z,27.03
2022-09-10T23:39:19.829Z,26.57
2022-09-10T23:41:52.056Z,27.93
2022-09-10T23:44:19.817Z,26.60
2022-09-10T23:46:46.764Z,24.67
2022-09-10T23:49:14.097Z,27.17
2022-09-10T23:51:41.498Z,24.00
2022-09-10T23:54:09.363Z,25.20
2022-09-10T23:56:37.134Z,26.13
2022-09-10T23:59:04.162Z,25.63
